createdAt,value
2023-01-13T00:01:36.692Z,84.95
2023-01-13T00:04:11.653Z,84.87
2023-01-13T00:06:53.176Z,84.79
2023-01-13T00:09:24.452Z,84.74
2023-01-13T00:11:57.929Z,84.60
2023-01-13T00:14:30.852Z,84.69
2023-01-13T00:16:57.701Z,84.47
2023-01-13T00:19:30.646Z,84.41
2023-01-13T00:21:57.970Z,84.14
2023-01-13T00:24:25.231Z,84.41
2023-01-13T00:26:53.965Z,84.24
2023-01-13T00:29:24.696Z,84.40
2023-01-13T00:32:05.252Z,84.22
2023-01-13T00:34:34.285Z,84.17
2023-01-13T00:37:21.133Z,84.27
2023-01-13T00:39:48.831Z,84.30
2023-01-13T00:42:42.000Z,84.14
2023-01-13T00:45:09.413Z,84.06
2023-01-13T00:47:37.462Z,84.21
2023-01-13T00:50:05.880Z,84.13
2023-01-13T00:52:35.389Z,84.11
2023-01-13T00:55:29.345Z,84.09
2023-01-13T01:03:54.391Z,84.26
2023-01-13T01:10:41.275Z,84.19
2023-01-13T01:13:28.247Z,83.89
2023-01-13T01:19:29.398Z,83.64
2023-01-13T01:22:25.965Z,83.63
2023-01-13T01:24:57.366Z,83.75
2023-01-13T01:31:48.510Z,83.56
2023-01-13T01:34:40.991Z,83.61
2023-01-13T01:37:32.745Z,83.61
2023-01-13T01:40:21.726Z,83.33
2023-01-13T01:47:04.719Z,83.33
2023-01-13T01:50:04.498Z,83.30
2023-01-13T01:52:41.272Z,83.33
2023-01-13T01:56:17.581Z,83.09
2023-01-13T02:02:27.070Z,82.84
2023-01-13T02:04:58.285Z,82.85
2023-01-13T02:07:28.527Z,82.86
2023-01-13T02:10:06.800Z,82.83
2023-01-13T02:12:47.978Z,82.97
2023-01-13T02:15:17.978Z,82.68
2023-01-13T02:18:33.793Z,82.93
2023-01-13T02:21:14.963Z,83.02
2023-01-13T02:24:46.997Z,82.88
2023-01-13T02:27:59.646Z,82.95
2023-01-13T02:31:12.965Z,83.08
2023-01-13T02:34:05.435Z,82.78
2023-01-13T02:37:16.525Z,82.93
2023-01-13T02:40:23.166Z,83.02
2023-01-13T02:43:16.684Z,83.27
2023-01-13T02:46:22.543Z,83.23
2023-01-13T02:48:52.929Z,83.19
2023-01-13T02:51:21.716Z,83.42
2023-01-13T02:53:57.146Z,83.21
2023-01-13T02:56:24.573Z,83.06
2023-01-13T02:58:53.065Z,83.40
2023-01-13T03:01:20.002Z,83.30
2023-01-13T03:03:47.117Z,83.04
2023-01-13T03:06:16.428Z,83.29
2023-01-13T03:09:00.934Z,83.42
2023-01-13T03:11:38.864Z,83.17
2023-01-13T03:14:11.246Z,83.22
2023-01-13T03:17:02.479Z,83.19
2023-01-13T03:20:09.579Z,83.38
2023-01-13T03:22:44.861Z,83.20
2023-01-13T03:25:24.427Z,83.37
2023-01-13T03:27:56.749Z,83.52
2023-01-13T03:30:29.498Z,83.51
2023-01-13T03:33:03.528Z,83.44
2023-01-13T03:35:35.277Z,83.42
2023-01-13T03:38:15.208Z,83.37
2023-01-13T03:40:50.967Z,83.54
2023-01-13T03:43:45.028Z,83.33
2023-01-13T03:46:22.293Z,83.29
2023-01-13T03:48:52.971Z,82.97
2023-01-13T03:51:23.006Z,82.94
2023-01-13T03:53:55.898Z,83.18
2023-01-13T03:56:37.765Z,82.86
2023-01-13T03:59:08.155Z,82.58
2023-01-13T04:01:53.703Z,82.79
2023-01-13T04:04:27.067Z,82.53
2023-01-13T04:07:12.895Z,82.51
2023-01-13T04:09:56.068Z,82.48
2023-01-13T04:12:51.223Z,82.39
2023-01-13T04:15:20.697Z,82.27
2023-01-13T04:17:47.600Z,82.39
2023-01-13T04:20:15.500Z,82.46
2023-01-13T04:22:44.420Z,82.18
2023-01-13T04:25:11.656Z,82.19
2023-01-13T04:27:44.920Z,82.22
2023-01-13T04:30:11.921Z,82.45
2023-01-13T04:32:38.524Z,82.26
2023-01-13T04:35:05.559Z,82.31
2023-01-13T04:37:32.183Z,82.18
2023-01-13T04:39:58.947Z,82.18
2023-01-13T04:42:25.680Z,82.10
2023-01-13T04:44:52.412Z,82.01
2023-01-13T04:47:24.038Z,82.28
2023-01-13T04:49:50.668Z,81.98
2023-01-13T04:52:17.217Z,81.91
2023-01-13T04:54:43.861Z,82.11
2023-01-13T04:57:10.506Z,81.79
2023-01-13T04:59:37.181Z,81.83
2023-01-13T05:02:03.812Z,81.94
2023-01-13T05:04:30.505Z,81.93
2023-01-13T05:06:57.136Z,81.80
2023-01-13T05:09:23.781Z,81.61
2023-01-13T05:12:08.996Z,81.45
2023-01-13T05:14:54.257Z,81.68
2023-01-13T05:17:24.601Z,81.71
2023-01-13T05:19:51.465Z,81.53
2023-01-13T05:22:36.822Z,81.71
2023-01-13T05:25:21.583Z,81.46
2023-01-13T05:27:49.776Z,81.57
2023-01-13T05:30:17.213Z,81.67
2023-01-13T05:32:44.113Z,81.75
2023-01-13T05:35:10.717Z,81.77
2023-01-13T05:37:37.867Z,81.81
2023-01-13T05:40:23.761Z,81.65
2023-01-13T05:43:19.956Z,81.62
2023-01-13T05:46:08.987Z,81.70
2023-01-13T05:48:38.493Z,81.63
2023-01-13T05:51:07.640Z,81.74
2023-01-13T05:53:34.562Z,81.48
2023-01-13T05:56:04.730Z,81.35
2023-01-13T05:58:31.459Z,81.50
2023-01-13T06:01:03.554Z,81.53
2023-01-13T06:03:31.026Z,81.52
2023-01-13T06:06:02.362Z,81.53
2023-01-13T06:08:30.040Z,81.58
2023-01-13T06:10:57.171Z,81.54
2023-01-13T06:13:25.421Z,81.52
2023-01-13T06:15:55.626Z,81.44
2023-01-13T06:18:23.313Z,81.34
2023-01-13T06:20:49.906Z,81.26
2023-01-13T06:23:17.637Z,80.98
2023-01-13T06:25:57.046Z,81.14
2023-01-13T06:28:25.904Z,81.04
2023-01-13T06:30:58.301Z,80.77
2023-01-13T06:33:37.500Z,80.70
2023-01-13T06:36:11.336Z,80.75
2023-01-13T06:38:43.152Z,80.75
2023-01-13T06:41:10.137Z,80.58
2023-01-13T06:43:38.637Z,80.72
2023-01-13T06:46:05.679Z,80.77
2023-01-13T06:48:35.532Z,80.64
2023-01-13T06:51:03.941Z,80.65
2023-01-13T06:53:30.706Z,80.93
2023-01-13T06:55:57.395Z,80.82
2023-01-13T06:58:24.078Z,80.61
2023-01-13T07:00:51.758Z,80.64
2023-01-13T07:03:19.861Z,80.57
2023-01-13T07:05:56.764Z,80.37
2023-01-13T07:08:24.516Z,80.48
2023-01-13T07:11:02.455Z,80.21
2023-01-13T07:14:11.477Z,80.15
2023-01-13T07:16:38.480Z,80.21
2023-01-13T07:19:05.225Z,79.94
2023-01-13T07:21:31.881Z,79.80
2023-01-13T07:23:58.589Z,79.65
2023-01-13T07:26:25.842Z,79.28
2023-01-13T07:28:52.547Z,79.14
2023-01-13T07:31:23.334Z,78.95
2023-01-13T07:34:06.800Z,78.70
2023-01-13T07:36:34.236Z,78.62
2023-01-13T07:39:01.363Z,78.49
2023-01-13T07:41:49.608Z,78.20
2023-01-13T07:44:16.220Z,78.03
2023-01-13T07:46:42.902Z,78.34
2023-01-13T07:49:10.227Z,78.00
2023-01-13T07:51:39.217Z,77.87
2023-01-13T07:54:06.317Z,77.84
2023-01-13T07:56:33.740Z,77.60
2023-01-13T07:59:01.060Z,77.58
2023-01-13T08:01:28.480Z,77.53
2023-01-13T08:03:56.362Z,77.44
2023-01-13T08:06:23.130Z,77.42
2023-01-13T08:08:49.826Z,77.17
2023-01-13T08:11:16.868Z,77.33
2023-01-13T08:13:43.748Z,76.95
2023-01-13T08:16:13.597Z,76.82
2023-01-13T08:18:41.156Z,76.93
2023-01-13T08:21:13.384Z,76.86
2023-01-13T08:23:41.886Z,76.83
2023-01-13T08:26:14.610Z,76.56
2023-01-13T08:28:41.521Z,76.35
2023-01-13T08:31:11.806Z,76.28
2023-01-13T08:33:39.229Z,76.08
2023-01-13T08:36:08.039Z,75.90
2023-01-13T08:38:35.652Z,75.59
2023-01-13T08:41:41.617Z,75.49
2023-01-13T08:44:09.442Z,75.23
2023-01-13T08:46:36.617Z,74.98
2023-01-13T08:49:03.776Z,74.80
2023-01-13T08:51:30.427Z,74.88
2023-01-13T08:53:57.088Z,74.88
2023-01-13T08:56:23.721Z,74.49
2023-01-13T08:58:50.322Z,74.51
2023-01-13T09:01:21.364Z,74.49
2023-01-13T09:03:48.204Z,74.30
2023-01-13T09:06:15.071Z,74.15
2023-01-13T09:08:42.155Z,74.15
2023-01-13T09:11:39.207Z,74.01
2023-01-13T09:14:05.936Z,73.88
2023-01-13T09:16:32.607Z,74.05
2023-01-13T09:18:59.263Z,73.90
2023-01-13T09:21:26.604Z,73.80
2023-01-13T09:23:53.222Z,73.91
2023-01-13T09:26:21.983Z,73.81
2023-01-13T09:28:48.626Z,73.73
2023-01-13T09:31:15.226Z,73.70
2023-01-13T09:34:00.800Z,73.75
2023-01-13T09:36:28.398Z,73.44
2023-01-13T09:38:54.943Z,73.13
2023-01-13T09:41:44.575Z,72.66
2023-01-13T09:44:28.610Z,72.50
2023-01-13T09:47:03.655Z,72.45
2023-01-13T09:49:42.200Z,72.21
2023-01-13T09:52:19.523Z,71.40
2023-01-13T09:54:53.701Z,71.07
2023-01-13T09:57:21.517Z,70.98
2023-01-13T09:59:48.748Z,70.71
2023-01-13T10:02:18.164Z,70.39
2023-01-13T10:05:02.972Z,70.78
2023-01-13T10:07:34.639Z,70.85
2023-01-13T10:10:04.336Z,70.59
2023-01-13T10:12:50.870Z,70.53
2023-01-13T10:15:23.250Z,69.93
2023-01-13T10:18:03.748Z,69.85
2023-01-13T10:20:55.072Z,69.85
2023-01-13T10:23:46.012Z,69.56
2023-01-13T10:26:27.900Z,69.37
2023-01-13T10:28:55.964Z,69.47
2023-01-13T10:31:23.833Z,69.37
2023-01-13T10:34:01.575Z,69.10
2023-01-13T10:36:28.326Z,69.18
2023-01-13T10:39:14.745Z,68.99
2023-01-13T10:41:41.606Z,68.99
2023-01-13T10:44:19.204Z,68.72
2023-01-13T10:46:57.581Z,68.53
2023-01-13T10:49:38.830Z,68.38
2023-01-13T10:52:26.809Z,68.11
2023-01-13T10:54:55.062Z,68.33
2023-01-13T10:57:24.857Z,68.11
2023-01-13T10:59:51.525Z,68.32
2023-01-13T11:02:30.782Z,68.16
2023-01-13T11:04:58.300Z,68.12
2023-01-13T11:07:38.556Z,67.72
2023-01-13T11:10:22.296Z,67.72
2023-01-13T11:13:16.719Z,67.26
2023-01-13T11:15:59.164Z,67.78
2023-01-13T11:18:43.739Z,67.64
2023-01-13T11:21:31.575Z,67.60
2023-01-13T11:24:12.887Z,67.94
2023-01-13T11:26:53.701Z,67.73
2023-01-13T11:30:00.108Z,67.69
2023-01-13T11:32:31.074Z,67.21
2023-01-13T11:35:03.301Z,67.22
2023-01-13T11:37:40.924Z,67.05
2023-01-13T11:40:21.482Z,67.04
2023-01-13T11:43:07.339Z,67.16
2023-01-13T11:45:40.939Z,67.09
2023-01-13T11:48:15.005Z,67.22
2023-01-13T11:51:02.167Z,66.99
2023-01-13T11:54:09.775Z,66.71
2023-01-13T11:56:51.738Z,66.80
2023-01-13T11:59:39.676Z,66.99
2023-01-13T12:02:47.772Z,66.86
2023-01-13T12:05:34.284Z,66.97
2023-01-13T12:08:12.498Z,67.08
2023-01-13T12:11:03.401Z,67.14
2023-01-13T12:14:10.557Z,67.16
2023-01-13T12:16:47.651Z,67.18
2023-01-13T12:19:28.257Z,67.64
2023-01-13T12:22:20.577Z,67.64
2023-01-13T12:25:20.761Z,67.96
2023-01-13T12:27:55.902Z,68.02
2023-01-13T12:30:29.546Z,68.34
2023-01-13T12:33:11.103Z,68.40
2023-01-13T12:35:50.069Z,68.66
2023-01-13T12:38:46.846Z,68.69
2023-01-13T12:42:04.394Z,68.88
2023-01-13T12:44:31.103Z,68.91
2023-01-13T12:46:58.922Z,68.72
2023-01-13T12:49:31.667Z,68.67
2023-01-13T12:51:58.172Z,68.92
2023-01-13T12:54:34.244Z,69.04
2023-01-13T12:57:01.249Z,69.13
2023-01-13T12:59:27.845Z,69.20
2023-01-13T13:02:19.175Z,68.68
2023-01-13T13:04:51.937Z,68.94
2023-01-13T13:07:40.516Z,69.07
2023-01-13T13:10:36.578Z,68.97
2023-01-13T13:13:19.999Z,69.06
2023-01-13T13:15:49.546Z,69.18
2023-01-13T13:18:23.974Z,69.03
2023-01-13T13:21:07.163Z,69.15
2023-01-13T13:23:38.016Z,69.05
2023-01-13T13:26:24.874Z,68.88
2023-01-13T13:29:16.223Z,69.26
2023-01-13T13:32:18.590Z,69.25
2023-01-13T13:34:51.177Z,69.29
2023-01-13T13:38:14.898Z,69.12
2023-01-13T13:41:05.733Z,69.14
2023-01-13T13:44:06.017Z,69.22
2023-01-13T13:46:51.645Z,69.30
2023-01-13T13:49:34.553Z,69.32
2023-01-13T13:52:34.693Z,69.30
2023-01-13T13:55:15.718Z,69.43
2023-01-13T13:57:48.590Z,69.65
2023-01-13T14:00:24.880Z,69.81
2023-01-13T14:02:57.635Z,69.93
2023-01-13T14:05:36.649Z,70.13
2023-01-13T14:08:31.870Z,70.21
2023-01-13T14:11:01.551Z,70.48
2023-01-13T14:13:34.077Z,70.10
2023-01-13T14:16:06.784Z,70.43
2023-01-13T14:18:46.170Z,70.38
2023-01-13T14:21:24.060Z,70.39
2023-01-13T14:24:17.067Z,70.31
2023-01-13T14:27:09.795Z,70.44
2023-01-13T14:29:46.057Z,70.46
2023-01-13T14:32:44.065Z,70.61
2023-01-13T14:35:29.390Z,70.63
2023-01-13T14:38:02.385Z,70.62
2023-01-13T14:40:39.506Z,71.02
2023-01-13T14:43:14.098Z,71.04
2023-01-13T14:46:02.855Z,71.03
2023-01-13T14:48:36.100Z,71.42
2023-01-13T14:51:06.491Z,71.46
2023-01-13T14:53:43.294Z,71.80
2023-01-13T14:56:40.816Z,71.71
2023-01-13T14:59:42.253Z,72.05
2023-01-13T15:02:36.451Z,71.97
2023-01-13T15:05:20.198Z,72.30
2023-01-13T15:07:51.348Z,72.12
2023-01-13T15:10:20.453Z,72.15
2023-01-13T15:12:51.544Z,72.55
2023-01-13T15:15:35.196Z,72.42
2023-01-13T15:18:11.139Z,72.63
2023-01-13T15:20:40.379Z,72.68
2023-01-13T15:23:07.415Z,72.69
2023-01-13T15:25:36.703Z,72.50
2023-01-13T15:28:06.044Z,72.45
2023-01-13T15:30:33.188Z,72.23
2023-01-13T15:33:00.665Z,72.06
2023-01-13T15:35:30.083Z,72.23
2023-01-13T15:37:58.155Z,72.06
2023-01-13T15:40:33.576Z,72.24
2023-01-13T15:43:18.977Z,71.95
2023-01-13T15:46:04.984Z,71.79
2023-01-13T15:48:33.031Z,71.67
2023-01-13T15:51:02.245Z,71.62
2023-01-13T15:53:29.849Z,71.89
2023-01-13T15:55:58.483Z,71.97
2023-01-13T15:58:28.504Z,72.32
2023-01-13T16:00:55.507Z,72.54
2023-01-13T16:03:22.957Z,72.51
2023-01-13T16:05:49.700Z,72.47
2023-01-13T16:08:22.550Z,72.83
2023-01-13T16:10:50.488Z,72.65
2023-01-13T16:13:18.013Z,72.88
2023-01-13T16:15:49.799Z,72.75
2023-01-13T16:18:23.833Z,72.89
2023-01-13T16:20:57.177Z,72.90
2023-01-13T16:23:23.764Z,72.61
2023-01-13T16:25:52.418Z,72.41
2023-01-13T16:28:24.118Z,72.54
2023-01-13T16:30:51.293Z,72.53
2023-01-13T16:33:17.920Z,72.49
2023-01-13T16:36:09.721Z,72.37
2023-01-13T16:38:31.205Z,72.52
2023-01-13T16:40:57.773Z,72.50
2023-01-13T16:43:24.375Z,72.83
2023-01-13T16:45:50.997Z,72.61
2023-01-13T16:48:20.121Z,72.91
2023-01-13T16:50:47.137Z,72.72
2023-01-13T16:53:13.810Z,73.11
2023-01-13T16:55:42.403Z,73.15
2023-01-13T16:58:20.600Z,73.24
2023-01-13T17:00:48.063Z,73.49
2023-01-13T17:03:15.998Z,73.18
2023-01-13T17:05:44.483Z,73.16
2023-01-13T17:08:17.773Z,73.39
2023-01-13T17:10:45.915Z,73.49
2023-01-13T17:13:16.358Z,73.43
2023-01-13T17:15:44.687Z,73.43
2023-01-13T17:18:17.226Z,73.60
2023-01-13T17:20:43.827Z,73.68
2023-01-13T17:23:15.567Z,73.70
2023-01-13T17:25:44.205Z,73.57
2023-01-13T17:28:12.931Z,73.63
2023-01-13T17:30:45.231Z,73.73
2023-01-13T17:33:16.923Z,73.79
2023-01-13T17:35:48.199Z,73.82
2023-01-13T17:38:17.283Z,74.28
2023-01-13T17:40:43.986Z,74.26
2023-01-13T17:43:11.579Z,74.64
2023-01-13T17:45:42.698Z,74.39
2023-01-13T17:48:09.519Z,74.64
2023-01-13T17:50:36.276Z,74.49
2023-01-13T17:53:02.895Z,74.77
2023-01-13T17:55:29.804Z,74.78
2023-01-13T17:57:56.962Z,74.93
2023-01-13T18:00:23.896Z,74.70
2023-01-13T18:02:54.219Z,74.91
2023-01-13T18:05:28.976Z,75.11
2023-01-13T18:07:57.243Z,75.22
2023-01-13T18:10:37.202Z,75.40
2023-01-13T18:13:06.044Z,75.49
2023-01-13T18:15:37.271Z,75.53
2023-01-13T18:18:08.120Z,75.70
2023-01-13T18:21:00.994Z,75.65
2023-01-13T18:23:53.893Z,75.90
2023-01-13T18:26:41.903Z,76.08
2023-01-13T18:29:13.595Z,76.41
2023-01-13T18:31:41.923Z,76.75
2023-01-13T18:34:08.699Z,77.49
2023-01-13T18:36:35.649Z,77.95
2023-01-13T18:39:03.530Z,78.11
2023-01-13T18:41:50.543Z,78.69
2023-01-13T18:44:17.840Z,79.40
2023-01-13T18:46:44.538Z,79.87
2023-01-13T18:49:11.199Z,80.33
2023-01-13T18:51:40.074Z,80.77
2023-01-13T18:54:07.045Z,81.15
2023-01-13T18:56:33.638Z,81.51
2023-01-13T18:59:01.891Z,81.93
2023-01-13T19:01:36.350Z,82.28
2023-01-13T19:04:18.504Z,82.40
2023-01-13T19:06:52.537Z,82.74
2023-01-13T19:09:27.655Z,83.14
2023-01-13T19:11:57.246Z,83.05
2023-01-13T19:14:42.613Z,83.58
2023-01-13T19:17:13.208Z,83.72
2023-01-13T19:19:53.863Z,83.82
2023-01-13T19:22:24.136Z,84.26
2023-01-13T19:24:57.270Z,84.65
2023-01-13T19:27:25.562Z,84.80
2023-01-13T19:29:54.045Z,85.05
2023-01-13T19:32:22.485Z,85.26
2023-01-13T19:34:51.287Z,85.60
2023-01-13T19:37:19.723Z,85.88
2023-01-13T19:39:46.680Z,86.12
2023-01-13T19:42:33.005Z,86.12
2023-01-13T19:45:18.643Z,86.38
2023-01-13T19:47:46.123Z,86.79
2023-01-13T19:50:17.239Z,87.10
2023-01-13T19:52:44.331Z,87.11
2023-01-13T19:55:12.803Z,87.14
2023-01-13T19:57:43.625Z,87.18
2023-01-13T20:00:11.965Z,87.38
2023-01-13T20:02:39.034Z,87.35
2023-01-13T20:05:18.502Z,87.69
2023-01-13T20:07:48.686Z,87.91
2023-01-13T20:10:20.065Z,87.70
2023-01-13T20:12:49.896Z,87.72
2023-01-13T20:15:16.917Z,87.87
2023-01-13T20:17:43.974Z,87.93
2023-01-13T20:20:12.189Z,87.97
2023-01-13T20:22:40.488Z,88.19
2023-01-13T20:25:08.720Z,88.15
2023-01-13T20:27:42.764Z,88.44
2023-01-13T20:30:19.427Z,88.22
2023-01-13T20:32:46.406Z,88.40
2023-01-13T20:35:14.544Z,88.51
2023-01-13T20:37:43.030Z,88.59
2023-01-13T20:40:14.251Z,88.87
2023-01-13T20:42:50.248Z,88.87
2023-01-13T20:45:21.061Z,89.02
2023-01-13T20:47:48.016Z,89.16
2023-01-13T20:50:16.056Z,89.29
2023-01-13T20:52:43.322Z,89.28
2023-01-13T20:55:10.816Z,89.54
2023-01-13T20:57:37.473Z,89.53
2023-01-13T21:00:05.733Z,89.84
2023-01-13T21:02:32.515Z,89.86
2023-01-13T21:04:59.299Z,89.78
2023-01-13T21:07:25.915Z,89.91
2023-01-13T21:09:53.980Z,90.20
2023-01-13T21:15:17.403Z,90.07
2023-01-13T21:18:05.167Z,90.24
2023-01-13T21:20:34.682Z,90.43
2023-01-13T21:23:05.954Z,90.38
2023-01-13T21:25:36.537Z,90.36
2023-01-13T21:28:07.404Z,90.60
2023-01-13T21:30:39.731Z,90.48
2023-01-13T21:33:06.720Z,90.52
2023-01-13T21:35:34.270Z,90.44
2023-01-13T21:38:00.919Z,90.47
2023-01-13T21:40:27.744Z,90.51
2023-01-13T21:43:13.993Z,90.67
2023-01-13T21:45:58.946Z,90.67
2023-01-13T21:48:25.687Z,90.67
2023-01-13T21:50:52.340Z,90.60
2023-01-13T21:53:19.029Z,90.76
2023-01-13T21:55:50.827Z,90.69
2023-01-13T21:58:17.577Z,90.67
2023-01-13T22:00:49.291Z,90.82
2023-01-13T22:03:18.470Z,90.84
2023-01-13T22:05:46.265Z,90.88
2023-01-13T22:08:13.777Z,90.81
2023-01-13T22:11:10.013Z,90.77
2023-01-13T22:13:54.962Z,90.73
2023-01-13T22:16:22.903Z,90.87
2023-01-13T22:18:49.741Z,90.84
2023-01-13T22:21:17.773Z,90.84
2023-01-13T22:23:45.410Z,90.75
2023-01-13T22:26:12.449Z,90.76
2023-01-13T22:28:43.497Z,90.71
2023-01-13T22:31:12.835Z,90.86
2023-01-13T22:33:40.550Z,90.95
2023-01-13T22:36:14.478Z,90.89
2023-01-13T22:38:41.106Z,90.98
2023-01-13T22:41:09.065Z,91.03
2023-01-13T22:43:36.813Z,91.15
2023-01-13T22:46:07.249Z,91.03
2023-01-13T22:48:34.888Z,91.02
2023-01-13T22:51:13.150Z,91.21
2023-01-13T22:53:41.379Z,91.10
2023-01-13T22:56:09.923Z,91.09
2023-01-13T22:58:36.479Z,91.16
2023-01-13T23:01:15.358Z,91.35
2023-01-13T23:03:46.402Z,91.35
2023-01-13T23:06:14.993Z,91.35
2023-01-13T23:08:41.716Z,91.15
2023-01-13T23:11:11.360Z,91.17
2023-01-13T23:13:39.543Z,91.19
2023-01-13T23:16:08.834Z,91.09
2023-01-13T23:18:35.489Z,91.13
2023-01-13T23:21:26.769Z,90.89
2023-01-13T23:23:53.884Z,90.90
2023-01-13T23:26:21.676Z,90.80
2023-01-13T23:28:49.088Z,90.79
2023-01-13T23:31:18.761Z,90.88
2023-01-13T23:33:46.165Z,90.80
2023-01-13T23:36:19.068Z,90.87
2023-01-13T23:38:46.342Z,90.80
2023-01-13T23:41:18.660Z,90.80
2023-01-13T23:43:53.718Z,90.65
2023-01-13T23:46:21.125Z,90.64
2023-01-13T23:48:48.458Z,90.67
2023-01-13T23:51:15.347Z,90.58
2023-01-13T23:53:47.233Z,90.50
2023-01-13T23:56:25.677Z,90.58
2023-01-13T23:58:53.496Z,90.70
